sensor_id;sensor_type;location;lat;lon;timestamp;temperature;humidity
28336;DHT22;15592;53.656;7.276;2022-08-02T00:01:42;12.30;99.90
28336;DHT22;15592;53.656;7.276;2022-08-02T00:04:08;12.30;99.90
28336;DHT22;15592;53.656;7.276;2022-08-02T00:06:34;12.20;99.90
28336;DHT22;15592;53.656;7.276;2022-08-02T00:09:01;12.20;99.90
28336;DHT22;15592;53.656;7.276;2022-08-02T00:11:26;12.20;99.90
28336;DHT22;15592;53.656;7.276;2022-08-02T00:13:52;12.10;99.90
28336;DHT22;15592;53.656;7.276;2022-08-02T00:16:18;12.10;99.90
28336;DHT22;15592;53.656;7.276;2022-08-02T00:18:44;12.10;99.90
28336;DHT22;15592;53.656;7.276;2022-08-02T00:21:09;12.10;99.90
28336;DHT22;15592;53.656;7.276;2022-08-02T00:23:35;12.10;99.90
28336;DHT22;15592;53.656;7.276;2022-08-02T00:26:01;12.10;99.90
28336;DHT22;15592;53.656;7.276;2022-08-02T00:28:27;12.10;99.90
28336;DHT22;15592;53.656;7.276;2022-08-02T00:30:52;12.10;99.90
28336;DHT22;15592;53.656;7.276;2022-08-02T00:33:18;12.10;99.90
28336;DHT22;15592;53.656;7.276;2022-08-02T00:35:44;12.10;99.90
28336;DHT22;15592;53.656;7.276;2022-08-02T00:38:12;12.10;99.90
28336;DHT22;15592;53.656;7.276;2022-08-02T00:40:37;12.10;99.90
28336;DHT22;15592;53.656;7.276;2022-08-02T00:45:33;12.00;99.90
28336;DHT22;15592;53.656;7.276;2022-08-02T00:48:00;12.10;99.90
28336;DHT22;15592;53.656;7.276;2022-08-02T00:50:26;12.10;99.90
28336;DHT22;15592;53.656;7.276;2022-08-02T00:52:51;12.10;99.90
28336;DHT22;15592;53.656;7.276;2022-08-02T00:55:17;12.10;99.90
28336;DHT22;15592;53.656;7.276;2022-08-02T00:57:43;12.10;99.90
28336;DHT22;15592;53.656;7.276;2022-08-02T01:00:09;12.10;99.90
28336;DHT22;15592;53.656;7.276;2022-08-02T01:02:34;12.00;99.90
28336;DHT22;15592;53.656;7.276;2022-08-02T01:05:00;12.00;99.90
28336;DHT22;15592;53.656;7.276;2022-08-02T01:07:26;12.00;99.90
28336;DHT22;15592;53.656;7.276;2022-08-02T01:09:52;12.00;99.90
28336;DHT22;15592;53.656;7.276;2022-08-02T01:12:18;11.90;99.90
28336;DHT22;15592;53.656;7.276;2022-08-02T01:14:46;11.90;99.90
28336;DHT22;15592;53.656;7.276;2022-08-02T01:17:35;11.80;99.90
28336;DHT22;15592;53.656;7.276;2022-08-02T01:28:42;11.70;99.90
28336;DHT22;15592;53.656;7.276;2022-08-02T01:31:33;11.80;99.90
28336;DHT22;15592;53.656;7.276;2022-08-02T01:34:23;11.70;99.90
28336;DHT22;15592;53.656;7.276;2022-08-02T01:36:57;11.70;99.90
28336;DHT22;15592;53.656;7.276;2022-08-02T01:39:26;11.60;99.90
28336;DHT22;15592;53.656;7.276;2022-08-02T01:41:53;11.60;99.90
28336;DHT22;15592;53.656;7.276;2022-08-02T01:44:21;11.50;99.90
28336;DHT22;15592;53.656;7.276;2022-08-02T01:46:49;11.50;99.90
28336;DHT22;15592;53.656;7.276;2022-08-02T01:49:17;11.40;99.90
28336;DHT22;15592;53.656;7.276;2022-08-02T01:51:47;11.40;99.90
28336;DHT22;15592;53.656;7.276;2022-08-02T01:54:32;11.40;99.90
28336;DHT22;15592;53.656;7.276;2022-08-02T01:57:01;11.30;99.90
28336;DHT22;15592;53.656;7.276;2022-08-02T01:59:29;11.30;99.90
28336;DHT22;15592;53.656;7.276;2022-08-02T02:01:57;11.30;99.90
28336;DHT22;15592;53.656;7.276;2022-08-02T02:04:25;11.30;99.90
28336;DHT22;15592;53.656;7.276;2022-08-02T02:06:53;11.30;99.90
28336;DHT22;15592;53.656;7.276;2022-08-02T02:09:20;11.30;99.90
28336;DHT22;15592;53.656;7.276;2022-08-02T02:11:47;11.30;99.90
28336;DHT22;15592;53.656;7.276;2022-08-02T02:14:15;11.30;99.90
28336;DHT22;15592;53.656;7.276;2022-08-02T02:16:43;11.30;99.90
28336;DHT22;15592;53.656;7.276;2022-08-02T02:19:11;11.30;99.90
28336;DHT22;15592;53.656;7.276;2022-08-02T02:21:40;11.30;99.90
28336;DHT22;15592;53.656;7.276;2022-08-02T02:24:06;11.30;99.90
28336;DHT22;15592;53.656;7.276;2022-08-02T02:26:33;11.30;99.90
28336;DHT22;15592;53.656;7.276;2022-08-02T02:29:02;11.30;99.90
28336;DHT22;15592;53.656;7.276;2022-08-02T02:31:33;11.40;99.90
28336;DHT22;15592;53.656;7.276;2022-08-02T02:34:09;11.30;99.90
28336;DHT22;15592;53.656;7.276;2022-08-02T02:36:41;11.30;99.90
28336;DHT22;15592;53.656;7.276;2022-08-02T02:39:11;11.30;99.90
28336;DHT22;15592;53.656;7.276;2022-08-02T02:41:39;11.30;99.90
28336;DHT22;15592;53.656;7.276;2022-08-02T02:44:05;11.30;99.90
28336;DHT22;15592;53.656;7.276;2022-08-02T02:46:34;11.20;99.90
28336;DHT22;15592;53.656;7.276;2022-08-02T02:49:00;11.20;99.90
28336;DHT22;15592;53.656;7.276;2022-08-02T02:51:27;11.20;99.90
28336;DHT22;15592;53.656;7.276;2022-08-02T02:53:54;11.20;99.90
28336;DHT22;15592;53.656;7.276;2022-08-02T02:56:21;11.20;99.90
28336;DHT22;15592;53.656;7.276;2022-08-02T02:58:47;11.10;99.90
28336;DHT22;15592;53.656;7.276;2022-08-02T03:01:13;11.10;99.90
28336;DHT22;15592;53.656;7.276;2022-08-02T03:04:00;11.10;99.90
28336;DHT22;15592;53.656;7.276;2022-08-02T03:06:28;11.10;99.90
28336;DHT22;15592;53.656;7.276;2022-08-02T03:08:54;11.10;99.90
28336;DHT22;15592;53.656;7.276;2022-08-02T03:11:20;11.00;99.90
28336;DHT22;15592;53.656;7.276;2022-08-02T03:13:45;11.10;99.90
28336;DHT22;15592;53.656;7.276;2022-08-02T03:16:11;11.10;99.90
28336;DHT22;15592;53.656;7.276;2022-08-02T03:18:39;11.10;99.90
28336;DHT22;15592;53.656;7.276;2022-08-02T03:21:09;11.10;99.90
28336;DHT22;15592;53.656;7.276;2022-08-02T03:23:36;11.10;99.90
28336;DHT22;15592;53.656;7.276;2022-08-02T03:26:03;11.10;99.90
28336;DHT22;15592;53.656;7.276;2022-08-02T03:28:29;11.10;99.90
28336;DHT22;15592;53.656;7.276;2022-08-02T03:30:55;11.10;99.90
28336;DHT22;15592;53.656;7.276;2022-08-02T03:33:21;11.10;99.90
28336;DHT22;15592;53.656;7.276;2022-08-02T03:35:49;11.10;99.90
28336;DHT22;15592;53.656;7.276;2022-08-02T03:38:17;11.10;99.90
28336;DHT22;15592;53.656;7.276;2022-08-02T03:40:44;11.10;99.90
28336;DHT22;15592;53.656;7.276;2022-08-02T03:43:10;11.10;99.90
28336;DHT22;15592;53.656;7.276;2022-08-02T03:45:39;11.10;99.90
28336;DHT22;15592;53.656;7.276;2022-08-02T03:48:06;11.10;99.90
28336;DHT22;15592;53.656;7.276;2022-08-02T03:50:32;11.00;99.90
28336;DHT22;15592;53.656;7.276;2022-08-02T03:52:59;11.10;99.90
28336;DHT22;15592;53.656;7.276;2022-08-02T03:55:25;11.10;99.90
28336;DHT22;15592;53.656;7.276;2022-08-02T03:57:51;11.10;99.90
28336;DHT22;15592;53.656;7.276;2022-08-02T04:00:19;11.10;99.90
28336;DHT22;15592;53.656;7.276;2022-08-02T04:02:45;11.10;99.90
28336;DHT22;15592;53.656;7.276;2022-08-02T04:05:11;11.10;99.90
28336;DHT22;15592;53.656;7.276;2022-08-02T04:07:37;11.20;99.90
28336;DHT22;15592;53.656;7.276;2022-08-02T04:10:03;11.20;99.90
28336;DHT22;15592;53.656;7.276;2022-08-02T04:12:29;11.30;99.90
28336;DHT22;15592;53.656;7.276;2022-08-02T04:14:55;11.30;99.90
28336;DHT22;15592;53.656;7.276;2022-08-02T04:17:22;11.30;99.90
28336;DHT22;15592;53.656;7.276;2022-08-02T04:19:52;11.40;99.90
28336;DHT22;15592;53.656;7.276;2022-08-02T04:22:26;11.40;99.90
28336;DHT22;15592;53.656;7.276;2022-08-02T04:24:58;11.60;99.90
28336;DHT22;15592;53.656;7.276;2022-08-02T04:27:24;11.60;99.90
28336;DHT22;15592;53.656;7.276;2022-08-02T04:29:51;11.60;99.90
28336;DHT22;15592;53.656;7.276;2022-08-02T04:32:18;11.70;99.90
28336;DHT22;15592;53.656;7.276;2022-08-02T04:34:44;11.70;99.90
28336;DHT22;15592;53.656;7.276;2022-08-02T04:37:11;11.80;99.90
28336;DHT22;15592;53.656;7.276;2022-08-02T04:39:39;11.80;99.90
28336;DHT22;15592;53.656;7.276;2022-08-02T04:42:05;11.90;99.90
28336;DHT22;15592;53.656;7.276;2022-08-02T04:44:31;11.90;99.90
28336;DHT22;15592;53.656;7.276;2022-08-02T04:46:58;12.00;99.90
28336;DHT22;15592;53.656;7.276;2022-08-02T04:49:24;12.10;99.90
28336;DHT22;15592;53.656;7.276;2022-08-02T04:51:50;12.10;99.90
28336;DHT22;15592;53.656;7.276;2022-08-02T04:54:15;12.20;99.90
28336;DHT22;15592;53.656;7.276;2022-08-02T04:56:41;12.20;99.90
28336;DHT22;15592;53.656;7.276;2022-08-02T04:59:07;12.30;99.90
28336;DHT22;15592;53.656;7.276;2022-08-02T05:01:33;12.30;99.90
28336;DHT22;15592;53.656;7.276;2022-08-02T05:04:00;12.40;99.90
28336;DHT22;15592;53.656;7.276;2022-08-02T05:06:25;12.40;99.90
28336;DHT22;15592;53.656;7.276;2022-08-02T05:08:51;12.40;99.90
28336;DHT22;15592;53.656;7.276;2022-08-02T05:11:17;12.40;99.90
28336;DHT22;15592;53.656;7.276;2022-08-02T05:13:43;12.40;99.90
28336;DHT22;15592;53.656;7.276;2022-08-02T05:16:08;12.50;99.90
28336;DHT22;15592;53.656;7.276;2022-08-02T05:18:34;12.50;99.90
28336;DHT22;15592;53.656;7.276;2022-08-02T05:21:00;12.50;99.90
28336;DHT22;15592;53.656;7.276;2022-08-02T05:23:25;12.50;99.90
28336;DHT22;15592;53.656;7.276;2022-08-02T05:25:51;12.50;99.90
28336;DHT22;15592;53.656;7.276;2022-08-02T05:28:16;12.50;99.90
28336;DHT22;15592;53.656;7.276;2022-08-02T05:30:42;12.50;99.90
28336;DHT22;15592;53.656;7.276;2022-08-02T05:33:08;12.50;99.90
28336;DHT22;15592;53.656;7.276;2022-08-02T05:35:33;12.60;99.90
28336;DHT22;15592;53.656;7.276;2022-08-02T05:37:59;12.60;99.90
28336;DHT22;15592;53.656;7.276;2022-08-02T05:40:25;12.70;99.90
28336;DHT22;15592;53.656;7.276;2022-08-02T05:42:51;12.70;99.90
28336;DHT22;15592;53.656;7.276;2022-08-02T05:45:25;12.80;99.90
28336;DHT22;15592;53.656;7.276;2022-08-02T05:47:51;12.80;99.90
28336;DHT22;15592;53.656;7.276;2022-08-02T05:50:16;12.90;99.90
28336;DHT22;15592;53.656;7.276;2022-08-02T05:52:49;12.90;99.90
28336;DHT22;15592;53.656;7.276;2022-08-02T05:55:17;12.90;99.90
28336;DHT22;15592;53.656;7.276;2022-08-02T06:01:07;13.00;99.90
28336;DHT22;15592;53.656;7.276;2022-08-02T06:03:42;13.00;99.90
28336;DHT22;15592;53.656;7.276;2022-08-02T06:06:14;13.00;99.90
28336;DHT22;15592;53.656;7.276;2022-08-02T06:08:47;13.10;99.90
28336;DHT22;15592;53.656;7.276;2022-08-02T06:11:18;13.10;99.90
28336;DHT22;15592;53.656;7.276;2022-08-02T06:13:45;13.10;99.90
28336;DHT22;15592;53.656;7.276;2022-08-02T06:16:11;13.20;99.90
28336;DHT22;15592;53.656;7.276;2022-08-02T06:18:40;13.30;99.90
28336;DHT22;15592;53.656;7.276;2022-08-02T06:21:05;13.30;99.90
28336;DHT22;15592;53.656;7.276;2022-08-02T06:23:33;13.40;99.90
28336;DHT22;15592;53.656;7.276;2022-08-02T06:26:02;13.40;99.90
28336;DHT22;15592;53.656;7.276;2022-08-02T06:28:29;13.40;99.90
28336;DHT22;15592;53.656;7.276;2022-08-02T06:30:55;13.50;99.90
28336;DHT22;15592;53.656;7.276;2022-08-02T06:33:22;13.50;99.90
28336;DHT22;15592;53.656;7.276;2022-08-02T06:38:32;13.70;99.90
28336;DHT22;15592;53.656;7.276;2022-08-02T06:41:05;13.70;99.90
28336;DHT22;15592;53.656;7.276;2022-08-02T06:43:49;13.80;99.90
28336;DHT22;15592;53.656;7.276;2022-08-02T06:46:18;14.00;99.90
28336;DHT22;15592;53.656;7.276;2022-08-02T06:48:44;14.00;99.90
28336;DHT22;15592;53.656;7.276;2022-08-02T06:51:09;14.10;99.90
28336;DHT22;15592;53.656;7.276;2022-08-02T06:53:35;14.20;99.90
28336;DHT22;15592;53.656;7.276;2022-08-02T06:56:01;14.20;99.90
28336;DHT22;15592;53.656;7.276;2022-08-02T06:58:26;14.30;99.90
28336;DHT22;15592;53.656;7.276;2022-08-02T07:00:52;14.40;99.90
28336;DHT22;15592;53.656;7.276;2022-08-02T07:03:18;14.40;99.90
28336;DHT22;15592;53.656;7.276;2022-08-02T07:05:43;14.50;99.90
28336;DHT22;15592;53.656;7.276;2022-08-02T07:08:16;14.60;99.90
28336;DHT22;15592;53.656;7.276;2022-08-02T07:10:41;14.60;99.90
28336;DHT22;15592;53.656;7.276;2022-08-02T07:13:08;14.70;99.90
28336;DHT22;15592;53.656;7.276;2022-08-02T07:15:33;14.80;99.90
28336;DHT22;15592;53.656;7.276;2022-08-02T07:17:59;14.90;99.90
28336;DHT22;15592;53.656;7.276;2022-08-02T07:20:25;15.00;99.90
28336;DHT22;15592;53.656;7.276;2022-08-02T07:22:50;15.10;99.90
28336;DHT22;15592;53.656;7.276;2022-08-02T07:25:16;15.20;99.90
28336;DHT22;15592;53.656;7.276;2022-08-02T07:27:42;15.30;99.90
28336;DHT22;15592;53.656;7.276;2022-08-02T07:30:09;15.30;99.90
28336;DHT22;15592;53.656;7.276;2022-08-02T07:32:35;15.40;99.90
28336;DHT22;15592;53.656;7.276;2022-08-02T07:35:01;15.50;99.90
28336;DHT22;15592;53.656;7.276;2022-08-02T07:37:29;15.60;99.90
28336;DHT22;15592;53.656;7.276;2022-08-02T07:39:55;15.70;99.90
28336;DHT22;15592;53.656;7.276;2022-08-02T07:42:21;15.80;99.90
28336;DHT22;15592;53.656;7.276;2022-08-02T07:44:47;15.90;99.90
28336;DHT22;15592;53.656;7.276;2022-08-02T07:47:12;15.90;99.90
28336;DHT22;15592;53.656;7.276;2022-08-02T07:49:38;16.00;99.90
28336;DHT22;15592;53.656;7.276;2022-08-02T07:52:04;16.10;99.90
28336;DHT22;15592;53.656;7.276;2022-08-02T07:54:30;16.20;99.90
28336;DHT22;15592;53.656;7.276;2022-08-02T07:56:55;16.30;99.90
28336;DHT22;15592;53.656;7.276;2022-08-02T07:59:21;16.40;99.90
28336;DHT22;15592;53.656;7.276;2022-08-02T08:01:48;16.40;99.90
28336;DHT22;15592;53.656;7.276;2022-08-02T08:04:14;16.50;99.90
28336;DHT22;15592;53.656;7.276;2022-08-02T08:06:40;16.60;99.90
28336;DHT22;15592;53.656;7.276;2022-08-02T08:09:06;16.60;99.90
28336;DHT22;15592;53.656;7.276;2022-08-02T08:11:31;16.80;99.90
28336;DHT22;15592;53.656;7.276;2022-08-02T08:13:57;16.80;99.90
28336;DHT22;15592;53.656;7.276;2022-08-02T08:16:23;16.90;99.90
28336;DHT22;15592;53.656;7.276;2022-08-02T08:18:50;17.00;99.90
28336;DHT22;15592;53.656;7.276;2022-08-02T08:21:16;17.00;99.90
28336;DHT22;15592;53.656;7.276;2022-08-02T08:23:42;17.10;99.90
28336;DHT22;15592;53.656;7.276;2022-08-02T08:26:07;17.20;99.90
28336;DHT22;15592;53.656;7.276;2022-08-02T08:28:33;17.30;99.90
28336;DHT22;15592;53.656;7.276;2022-08-02T08:31:00;17.30;99.90
28336;DHT22;15592;53.656;7.276;2022-08-02T08:33:26;17.40;99.90
28336;DHT22;15592;53.656;7.276;2022-08-02T08:35:52;17.50;99.90
28336;DHT22;15592;53.656;7.276;2022-08-02T08:38:17;17.50;99.90
28336;DHT22;15592;53.656;7.276;2022-08-02T08:40:43;17.70;99.90
28336;DHT22;15592;53.656;7.276;2022-08-02T08:43:11;17.80;99.90
28336;DHT22;15592;53.656;7.276;2022-08-02T08:45:39;18.00;99.90
28336;DHT22;15592;53.656;7.276;2022-08-02T08:48:10;18.00;99.90
28336;DHT22;15592;53.656;7.276;2022-08-02T08:50:46;18.20;99.90
28336;DHT22;15592;53.656;7.276;2022-08-02T08:53:14;18.20;99.90
28336;DHT22;15592;53.656;7.276;2022-08-02T08:55:41;18.30;99.90
28336;DHT22;15592;53.656;7.276;2022-08-02T08:58:07;18.40;99.90
28336;DHT22;15592;53.656;7.276;2022-08-02T09:00:35;18.50;99.90
28336;DHT22;15592;53.656;7.276;2022-08-02T09:03:02;18.60;99.90
28336;DHT22;15592;53.656;7.276;2022-08-02T09:05:28;18.70;99.90
28336;DHT22;15592;53.656;7.276;2022-08-02T09:07:54;18.80;99.90
28336;DHT22;15592;53.656;7.276;2022-08-02T09:10:46;18.90;99.90
28336;DHT22;15592;53.656;7.276;2022-08-02T09:15:55;19.10;99.90
28336;DHT22;15592;53.656;7.276;2022-08-02T09:18:32;19.20;99.90
28336;DHT22;15592;53.656;7.276;2022-08-02T09:20:59;19.30;99.90
28336;DHT22;15592;53.656;7.276;2022-08-02T09:23:37;19.40;99.90
28336;DHT22;15592;53.656;7.276;2022-08-02T09:26:05;19.40;99.90
28336;DHT22;15592;53.656;7.276;2022-08-02T09:28:33;19.40;99.90
28336;DHT22;15592;53.656;7.276;2022-08-02T09:31:08;19.50;99.90
28336;DHT22;15592;53.656;7.276;2022-08-02T09:33:35;19.60;99.90
28336;DHT22;15592;53.656;7.276;2022-08-02T09:36:05;19.80;99.90
28336;DHT22;15592;53.656;7.276;2022-08-02T09:38:31;19.90;99.90
28336;DHT22;15592;53.656;7.276;2022-08-02T09:40:58;20.10;99.90
28336;DHT22;15592;53.656;7.276;2022-08-02T09:43:41;20.20;99.90
28336;DHT22;15592;53.656;7.276;2022-08-02T09:46:14;20.40;99.90
28336;DHT22;15592;53.656;7.276;2022-08-02T09:49:00;20.70;99.90
28336;DHT22;15592;53.656;7.276;2022-08-02T09:51:34;20.80;99.90
28336;DHT22;15592;53.656;7.276;2022-08-02T09:54:03;21.00;99.90
28336;DHT22;15592;53.656;7.276;2022-08-02T09:56:49;21.10;99.90
28336;DHT22;15592;53.656;7.276;2022-08-02T09:59:16;21.20;99.90
28336;DHT22;15592;53.656;7.276;2022-08-02T10:01:43;21.30;99.90
28336;DHT22;15592;53.656;7.276;2022-08-02T10:04:11;21.40;99.90
28336;DHT22;15592;53.656;7.276;2022-08-02T10:06:38;21.50;99.90
28336;DHT22;15592;53.656;7.276;2022-08-02T10:09:05;21.50;99.90
28336;DHT22;15592;53.656;7.276;2022-08-02T10:11:32;21.50;99.90
28336;DHT22;15592;53.656;7.276;2022-08-02T10:13:59;21.50;99.90
28336;DHT22;15592;53.656;7.276;2022-08-02T10:16:26;21.50;99.90
28336;DHT22;15592;53.656;7.276;2022-08-02T10:18:54;21.60;99.90
28336;DHT22;15592;53.656;7.276;2022-08-02T10:24:20;21.80;99.90
28336;DHT22;15592;53.656;7.276;2022-08-02T10:26:47;22.10;99.90
28336;DHT22;15592;53.656;7.276;2022-08-02T10:29:18;22.20;99.90
28336;DHT22;15592;53.656;7.276;2022-08-02T10:31:53;22.40;99.90
28336;DHT22;15592;53.656;7.276;2022-08-02T10:34:23;22.40;99.90
28336;DHT22;15592;53.656;7.276;2022-08-02T10:36:52;22.50;99.90
28336;DHT22;15592;53.656;7.276;2022-08-02T10:39:18;22.50;99.90
28336;DHT22;15592;53.656;7.276;2022-08-02T10:41:49;22.60;99.90
28336;DHT22;15592;53.656;7.276;2022-08-02T10:44:32;22.60;99.90
28336;DHT22;15592;53.656;7.276;2022-08-02T10:49:54;22.60;99.90
28336;DHT22;15592;53.656;7.276;2022-08-02T10:52:25;22.80;99.90
28336;DHT22;15592;53.656;7.276;2022-08-02T10:55:00;22.90;99.90
28336;DHT22;15592;53.656;7.276;2022-08-02T10:57:27;23.00;99.90
28336;DHT22;15592;53.656;7.276;2022-08-02T11:05:03;23.00;99.90
28336;DHT22;15592;53.656;7.276;2022-08-02T11:07:39;22.90;99.90
28336;DHT22;15592;53.656;7.276;2022-08-02T11:10:37;22.80;99.90
28336;DHT22;15592;53.656;7.276;2022-08-02T11:15:53;22.70;99.90
28336;DHT22;15592;53.656;7.276;2022-08-02T11:18:20;22.60;99.90
28336;DHT22;15592;53.656;7.276;2022-08-02T11:20:46;22.50;99.90
28336;DHT22;15592;53.656;7.276;2022-08-02T11:26:01;22.40;99.90
28336;DHT22;15592;53.656;7.276;2022-08-02T11:28:29;22.30;99.90
28336;DHT22;15592;53.656;7.276;2022-08-02T11:30:59;22.30;99.90
28336;DHT22;15592;53.656;7.276;2022-08-02T11:33:32;22.30;99.90
28336;DHT22;15592;53.656;7.276;2022-08-02T11:36:04;22.30;99.90
28336;DHT22;15592;53.656;7.276;2022-08-02T11:38:30;22.40;99.90
28336;DHT22;15592;53.656;7.276;2022-08-02T11:40:56;22.50;99.90
28336;DHT22;15592;53.656;7.276;2022-08-02T11:43:24;22.70;99.90
28336;DHT22;15592;53.656;7.276;2022-08-02T11:45:51;22.70;99.90
28336;DHT22;15592;53.656;7.276;2022-08-02T11:48:38;22.80;99.90
28336;DHT22;15592;53.656;7.276;2022-08-02T11:51:10;22.90;99.90
28336;DHT22;15592;53.656;7.276;2022-08-02T11:53:54;23.00;99.90
28336;DHT22;15592;53.656;7.276;2022-08-02T11:56:30;22.90;99.90
28336;DHT22;15592;53.656;7.276;2022-08-02T11:59:10;22.80;99.90
28336;DHT22;15592;53.656;7.276;2022-08-02T12:01:37;22.70;99.90
28336;DHT22;15592;53.656;7.276;2022-08-02T12:04:05;22.70;99.90
28336;DHT22;15592;53.656;7.276;2022-08-02T12:06:31;22.70;99.90
28336;DHT22;15592;53.656;7.276;2022-08-02T12:09:03;22.70;99.90
28336;DHT22;15592;53.656;7.276;2022-08-02T12:11:29;22.70;99.90
28336;DHT22;15592;53.656;7.276;2022-08-02T12:13:55;22.80;99.90
28336;DHT22;15592;53.656;7.276;2022-08-02T12:16:22;22.90;99.90
28336;DHT22;15592;53.656;7.276;2022-08-02T12:19:06;22.90;99.90
28336;DHT22;15592;53.656;7.276;2022-08-02T12:21:45;23.10;99.90
28336;DHT22;15592;53.656;7.276;2022-08-02T12:24:11;23.10;99.90
28336;DHT22;15592;53.656;7.276;2022-08-02T12:26:44;23.10;99.90
28336;DHT22;15592;53.656;7.276;2022-08-02T12:29:10;23.20;99.90
28336;DHT22;15592;53.656;7.276;2022-08-02T12:31:46;23.10;99.90
28336;DHT22;15592;53.656;7.276;2022-08-02T12:34:16;23.10;99.90
28336;DHT22;15592;53.656;7.276;2022-08-02T12:36:55;23.10;99.90
28336;DHT22;15592;53.656;7.276;2022-08-02T12:39:43;23.10;99.90
28336;DHT22;15592;53.656;7.276;2022-08-02T12:42:15;23.20;99.90
28336;DHT22;15592;53.656;7.276;2022-08-02T12:44:59;23.20;99.90
28336;DHT22;15592;53.656;7.276;2022-08-02T12:47:25;23.30;99.90
28336;DHT22;15592;53.656;7.276;2022-08-02T12:50:17;23.30;99.90
28336;DHT22;15592;53.656;7.276;2022-08-02T12:53:17;23.30;99.90
28336;DHT22;15592;53.656;7.276;2022-08-02T12:58:13;23.00;99.90
28336;DHT22;15592;53.656;7.276;2022-08-02T13:00:39;22.90;99.90
28336;DHT22;15592;53.656;7.276;2022-08-02T13:03:06;22.90;99.90
28336;DHT22;15592;53.656;7.276;2022-08-02T13:05:34;22.80;99.90
28336;DHT22;15592;53.656;7.276;2022-08-02T13:08:01;22.80;99.90
28336;DHT22;15592;53.656;7.276;2022-08-02T13:10:28;22.80;99.90
28336;DHT22;15592;53.656;7.276;2022-08-02T13:12:54;22.80;99.90
28336;DHT22;15592;53.656;7.276;2022-08-02T13:15:20;22.70;99.90
28336;DHT22;15592;53.656;7.276;2022-08-02T13:17:47;22.70;99.90
28336;DHT22;15592;53.656;7.276;2022-08-02T13:20:13;22.70;99.90
28336;DHT22;15592;53.656;7.276;2022-08-02T13:22:40;22.70;99.90
28336;DHT22;15592;53.656;7.276;2022-08-02T13:25:07;22.70;99.90
28336;DHT22;15592;53.656;7.276;2022-08-02T13:27:32;22.60;99.90
28336;DHT22;15592;53.656;7.276;2022-08-02T13:29:59;22.60;99.90
28336;DHT22;15592;53.656;7.276;2022-08-02T13:32:25;22.60;99.90
28336;DHT22;15592;53.656;7.276;2022-08-02T13:34:53;22.60;99.90
28336;DHT22;15592;53.656;7.276;2022-08-02T13:37:19;22.60;99.90
28336;DHT22;15592;53.656;7.276;2022-08-02T13:39:45;22.50;99.90
28336;DHT22;15592;53.656;7.276;2022-08-02T13:42:11;22.50;99.90
28336;DHT22;15592;53.656;7.276;2022-08-02T13:44:37;22.40;99.90
28336;DHT22;15592;53.656;7.276;2022-08-02T13:47:03;22.40;99.90
28336;DHT22;15592;53.656;7.276;2022-08-02T13:49:29;22.40;99.90
28336;DHT22;15592;53.656;7.276;2022-08-02T13:51:54;22.40;99.90
28336;DHT22;15592;53.656;7.276;2022-08-02T13:54:20;22.40;99.90
28336;DHT22;15592;53.656;7.276;2022-08-02T13:56:45;22.40;99.90
28336;DHT22;15592;53.656;7.276;2022-08-02T14:02:03;22.40;99.90
28336;DHT22;15592;53.656;7.276;2022-08-02T14:04:28;22.40;99.90
28336;DHT22;15592;53.656;7.276;2022-08-02T14:06:55;22.30;99.90
28336;DHT22;15592;53.656;7.276;2022-08-02T14:09:21;22.30;99.90
28336;DHT22;15592;53.656;7.276;2022-08-02T14:11:47;22.20;99.90
28336;DHT22;15592;53.656;7.276;2022-08-02T14:14:12;22.20;99.90
28336;DHT22;15592;53.656;7.276;2022-08-02T14:16:38;22.20;99.90
28336;DHT22;15592;53.656;7.276;2022-08-02T14:19:04;22.20;99.90
28336;DHT22;15592;53.656;7.276;2022-08-02T14:21:30;22.20;99.90
28336;DHT22;15592;53.656;7.276;2022-08-02T14:23:56;22.30;99.90
28336;DHT22;15592;53.656;7.276;2022-08-02T14:26:21;22.30;99.90
28336;DHT22;15592;53.656;7.276;2022-08-02T14:28:47;22.20;99.90
28336;DHT22;15592;53.656;7.276;2022-08-02T14:31:13;22.20;99.90
28336;DHT22;15592;53.656;7.276;2022-08-02T14:33:38;22.20;99.90
28336;DHT22;15592;53.656;7.276;2022-08-02T14:36:05;22.20;99.90
28336;DHT22;15592;53.656;7.276;2022-08-02T14:38:30;22.20;99.90
28336;DHT22;15592;53.656;7.276;2022-08-02T14:40:57;22.20;99.90
28336;DHT22;15592;53.656;7.276;2022-08-02T14:43:22;22.30;99.90
28336;DHT22;15592;53.656;7.276;2022-08-02T14:46:07;22.30;99.90
28336;DHT22;15592;53.656;7.276;2022-08-02T14:48:32;22.30;99.90
28336;DHT22;15592;53.656;7.276;2022-08-02T14:50:58;22.40;99.90
28336;DHT22;15592;53.656;7.276;2022-08-02T14:53:23;22.40;99.90
28336;DHT22;15592;53.656;7.276;2022-08-02T14:55:49;22.50;99.90
28336;DHT22;15592;53.656;7.276;2022-08-02T14:58:15;22.50;99.90
28336;DHT22;15592;53.656;7.276;2022-08-02T15:00:41;22.60;99.90
28336;DHT22;15592;53.656;7.276;2022-08-02T15:03:07;22.60;99.90
28336;DHT22;15592;53.656;7.276;2022-08-02T15:05:33;22.60;99.90
28336;DHT22;15592;53.656;7.276;2022-08-02T15:07:58;22.50;99.90
28336;DHT22;15592;53.656;7.276;2022-08-02T15:10:24;22.50;99.90
28336;DHT22;15592;53.656;7.276;2022-08-02T15:12:49;22.40;99.90
28336;DHT22;15592;53.656;7.276;2022-08-02T15:15:15;22.40;99.90
28336;DHT22;15592;53.656;7.276;2022-08-02T15:17:40;22.30;99.90
28336;DHT22;15592;53.656;7.276;2022-08-02T15:20:07;22.30;99.90
28336;DHT22;15592;53.656;7.276;2022-08-02T15:22:32;22.30;99.90
28336;DHT22;15592;53.656;7.276;2022-08-02T15:24:58;22.20;99.90
28336;DHT22;15592;53.656;7.276;2022-08-02T15:27:24;22.20;99.90
28336;DHT22;15592;53.656;7.276;2022-08-02T15:29:49;22.30;99.90
28336;DHT22;15592;53.656;7.276;2022-08-02T15:32:15;22.30;99.90
28336;DHT22;15592;53.656;7.276;2022-08-02T15:34:43;22.30;99.90
28336;DHT22;15592;53.656;7.276;2022-08-02T15:37:10;22.40;99.90
28336;DHT22;15592;53.656;7.276;2022-08-02T15:39:36;22.50;99.90
28336;DHT22;15592;53.656;7.276;2022-08-02T15:42:01;22.70;99.90
28336;DHT22;15592;53.656;7.276;2022-08-02T15:44:27;22.70;99.90
28336;DHT22;15592;53.656;7.276;2022-08-02T15:46:53;22.80;99.90
28336;DHT22;15592;53.656;7.276;2022-08-02T15:49:20;22.80;99.90
28336;DHT22;15592;53.656;7.276;2022-08-02T15:51:48;23.00;99.90
28336;DHT22;15592;53.656;7.276;2022-08-02T15:54:14;23.00;99.90
28336;DHT22;15592;53.656;7.276;2022-08-02T15:56:40;22.90;99.90
28336;DHT22;15592;53.656;7.276;2022-08-02T15:59:06;22.90;99.90
28336;DHT22;15592;53.656;7.276;2022-08-02T16:01:31;22.80;99.90
28336;DHT22;15592;53.656;7.276;2022-08-02T16:03:57;22.70;99.90
28336;DHT22;15592;53.656;7.276;2022-08-02T16:06:23;22.70;99.90
28336;DHT22;15592;53.656;7.276;2022-08-02T16:08:48;22.70;99.90
28336;DHT22;15592;53.656;7.276;2022-08-02T16:11:14;22.60;99.90
28336;DHT22;15592;53.656;7.276;2022-08-02T16:13:41;22.70;99.90
28336;DHT22;15592;53.656;7.276;2022-08-02T16:16:19;22.70;99.90
28336;DHT22;15592;53.656;7.276;2022-08-02T16:18:45;22.70;99.90